sensor_id;sensor_type;location;lat;lon;timestamp;P1;durP1;ratioP1;P2;durP2;ratioP2
21890;SDS011;11110;52.386;16.940;2023-02-20T00:01:45;129.53;;;66.87;;
21890;SDS011;11110;52.386;16.940;2023-02-20T00:04:16;139.00;;;68.30;;
21890;SDS011;11110;52.386;16.940;2023-02-20T00:06:45;134.93;;;67.97;;
21890;SDS011;11110;52.386;16.940;2023-02-20T00:09:13;139.53;;;69.53;;
21890;SDS011;11110;52.386;16.940;2023-02-20T00:11:42;135.70;;;68.40;;
21890;SDS011;11110;52.386;16.940;2023-02-20T00:14:12;135.03;;;67.60;;
21890;SDS011;11110;52.386;16.940;2023-02-20T00:16:41;133.43;;;66.33;;
21890;SDS011;11110;52.386;16.940;2023-02-20T00:19:13;130.53;;;65.73;;
21890;SDS011;11110;52.386;16.940;2023-02-20T00:21:44;124.57;;;65.53;;
21890;SDS011;11110;52.386;16.940;2023-02-20T00:24:13;134.73;;;68.40;;
21890;SDS011;11110;52.386;16.940;2023-02-20T00:26:45;147.53;;;72.27;;
21890;SDS011;11110;52.386;16.940;2023-02-20T00:29:15;127.77;;;68.17;;
21890;SDS011;11110;52.386;16.940;2023-02-20T00:31:48;137.77;;;69.57;;
21890;SDS011;11110;52.386;16.940;2023-02-20T00:34:19;131.77;;;68.50;;
21890;SDS011;11110;52.386;16.940;2023-02-20T00:36:48;131.27;;;68.63;;
21890;SDS011;11110;52.386;16.940;2023-02-20T00:39:17;131.77;;;68.93;;
21890;SDS011;11110;52.386;16.940;2023-02-20T00:41:46;127.60;;;67.23;;
21890;SDS011;11110;52.386;16.940;2023-02-20T00:44:14;144.20;;;72.93;;
21890;SDS011;11110;52.386;16.940;2023-02-20T00:46:43;137.07;;;70.63;;
21890;SDS011;11110;52.386;16.940;2023-02-20T00:49:12;129.73;;;70.00;;
21890;SDS011;11110;52.386;16.940;2023-02-20T00:51:48;140.07;;;70.97;;
21890;SDS011;11110;52.386;16.940;2023-02-20T00:54:16;134.77;;;69.70;;
21890;SDS011;11110;52.386;16.940;2023-02-20T00:56:45;129.47;;;69.17;;
21890;SDS011;11110;52.386;16.940;2023-02-20T00:59:14;131.60;;;68.70;;
21890;SDS011;11110;52.386;16.940;2023-02-20T01:01:42;139.37;;;70.53;;
21890;SDS011;11110;52.386;16.940;2023-02-20T01:04:11;138.57;;;71.40;;
21890;SDS011;11110;52.386;16.940;2023-02-20T01:06:41;128.07;;;69.40;;
21890;SDS011;11110;52.386;16.940;2023-02-20T01:09:12;138.07;;;71.27;;
21890;SDS011;11110;52.386;16.940;2023-02-20T01:11:41;128.43;;;69.43;;
21890;SDS011;11110;52.386;16.940;2023-02-20T01:14:10;130.57;;;70.73;;
21890;SDS011;11110;52.386;16.940;2023-02-20T01:16:42;130.97;;;71.20;;
21890;SDS011;11110;52.386;16.940;2023-02-20T01:19:12;144.30;;;73.87;;
21890;SDS011;11110;52.386;16.940;2023-02-20T01:21:41;132.77;;;71.00;;
21890;SDS011;11110;52.386;16.940;2023-02-20T01:24:11;133.20;;;71.30;;
21890;SDS011;11110;52.386;16.940;2023-02-20T01:26:40;138.37;;;72.60;;
21890;SDS011;11110;52.386;16.940;2023-02-20T01:29:09;137.43;;;72.17;;
21890;SDS011;11110;52.386;16.940;2023-02-20T01:31:38;137.60;;;73.90;;
21890;SDS011;11110;52.386;16.940;2023-02-20T01:34:07;137.87;;;70.57;;
21890;SDS011;11110;52.386;16.940;2023-02-20T01:36:37;124.20;;;70.57;;
21890;SDS011;11110;52.386;16.940;2023-02-20T01:39:05;133.70;;;69.90;;
21890;SDS011;11110;52.386;16.940;2023-02-20T01:41:35;131.73;;;70.97;;
21890;SDS011;11110;52.386;16.940;2023-02-20T01:44:04;134.83;;;69.40;;
21890;SDS011;11110;52.386;16.940;2023-02-20T01:46:51;134.53;;;70.63;;
21890;SDS011;11110;52.386;16.940;2023-02-20T01:49:24;140.23;;;71.77;;
21890;SDS011;11110;52.386;16.940;2023-02-20T01:51:58;147.10;;;74.00;;
21890;SDS011;11110;52.386;16.940;2023-02-20T01:54:30;139.90;;;71.70;;
21890;SDS011;11110;52.386;16.940;2023-02-20T01:57:03;143.03;;;71.87;;
21890;SDS011;11110;52.386;16.940;2023-02-20T01:59:36;130.60;;;68.93;;
21890;SDS011;11110;52.386;16.940;2023-02-20T02:02:07;137.83;;;71.23;;
21890;SDS011;11110;52.386;16.940;2023-02-20T02:04:38;143.90;;;71.30;;
21890;SDS011;11110;52.386;16.940;2023-02-20T02:07:10;140.53;;;71.30;;
21890;SDS011;11110;52.386;16.940;2023-02-20T02:09:42;131.93;;;68.17;;
21890;SDS011;11110;52.386;16.940;2023-02-20T02:12:18;138.10;;;70.43;;
21890;SDS011;11110;52.386;16.940;2023-02-20T02:14:47;138.27;;;71.03;;
21890;SDS011;11110;52.386;16.940;2023-02-20T02:23:43;136.43;;;71.23;;
21890;SDS011;11110;52.386;16.940;2023-02-20T02:26:55;131.17;;;68.50;;
21890;SDS011;11110;52.386;16.940;2023-02-20T02:30:09;131.67;;;69.63;;
21890;SDS011;11110;52.386;16.940;2023-02-20T02:33:08;144.33;;;70.73;;
21890;SDS011;11110;52.386;16.940;2023-02-20T02:39:01;132.10;;;68.23;;
21890;SDS011;11110;52.386;16.940;2023-02-20T02:41:38;141.27;;;70.00;;
21890;SDS011;11110;52.386;16.940;2023-02-20T02:44:15;141.23;;;69.67;;
21890;SDS011;11110;52.386;16.940;2023-02-20T02:46:47;135.67;;;69.67;;
21890;SDS011;11110;52.386;16.940;2023-02-20T02:49:23;127.60;;;67.63;;
21890;SDS011;11110;52.386;16.940;2023-02-20T02:51:57;126.57;;;66.23;;
21890;SDS011;11110;52.386;16.940;2023-02-20T02:54:27;143.40;;;67.50;;
21890;SDS011;11110;52.386;16.940;2023-02-20T02:59:47;136.90;;;68.83;;
21890;SDS011;11110;52.386;16.940;2023-02-20T03:02:21;135.93;;;68.43;;
21890;SDS011;11110;52.386;16.940;2023-02-20T03:04:50;134.03;;;69.97;;
21890;SDS011;11110;52.386;16.940;2023-02-20T03:07:23;131.57;;;68.37;;
21890;SDS011;11110;52.386;16.940;2023-02-20T03:09:53;134.87;;;69.70;;
21890;SDS011;11110;52.386;16.940;2023-02-20T03:12:26;131.17;;;68.47;;
21890;SDS011;11110;52.386;16.940;2023-02-20T03:14:58;141.83;;;70.67;;
21890;SDS011;11110;52.386;16.940;2023-02-20T03:17:51;131.07;;;69.43;;
21890;SDS011;11110;52.386;16.940;2023-02-20T03:20:26;138.37;;;69.97;;
21890;SDS011;11110;52.386;16.940;2023-02-20T03:22:57;148.13;;;74.70;;
21890;SDS011;11110;52.386;16.940;2023-02-20T03:25:29;131.90;;;71.03;;
21890;SDS011;11110;52.386;16.940;2023-02-20T03:28:02;133.70;;;73.23;;
21890;SDS011;11110;52.386;16.940;2023-02-20T03:30:34;133.77;;;71.70;;
21890;SDS011;11110;52.386;16.940;2023-02-20T03:33:07;139.77;;;72.30;;
21890;SDS011;11110;52.386;16.940;2023-02-20T03:35:58;136.93;;;71.63;;
21890;SDS011;11110;52.386;16.940;2023-02-20T03:38:49;141.30;;;74.27;;
21890;SDS011;11110;52.386;16.940;2023-02-20T03:41:39;133.00;;;70.70;;
21890;SDS011;11110;52.386;16.940;2023-02-20T03:44:29;135.30;;;71.20;;
21890;SDS011;11110;52.386;16.940;2023-02-20T03:47:00;143.93;;;73.87;;
21890;SDS011;11110;52.386;16.940;2023-02-20T03:49:34;151.23;;;76.00;;
21890;SDS011;11110;52.386;16.940;2023-02-20T03:52:22;130.03;;;71.23;;
21890;SDS011;11110;52.386;16.940;2023-02-20T03:54:53;127.63;;;73.17;;
21890;SDS011;11110;52.386;16.940;2023-02-20T03:57:23;137.70;;;75.27;;
21890;SDS011;11110;52.386;16.940;2023-02-20T03:59:56;139.83;;;73.40;;
21890;SDS011;11110;52.386;16.940;2023-02-20T04:02:41;148.67;;;73.87;;
21890;SDS011;11110;52.386;16.940;2023-02-20T04:05:15;129.70;;;71.90;;
21890;SDS011;11110;52.386;16.940;2023-02-20T04:07:49;141.23;;;71.50;;
21890;SDS011;11110;52.386;16.940;2023-02-20T04:10:25;136.97;;;70.30;;
21890;SDS011;11110;52.386;16.940;2023-02-20T04:12:57;132.67;;;70.10;;
21890;SDS011;11110;52.386;16.940;2023-02-20T04:15:28;144.37;;;72.47;;
21890;SDS011;11110;52.386;16.940;2023-02-20T04:18:00;133.83;;;70.33;;
21890;SDS011;11110;52.386;16.940;2023-02-20T04:20:32;153.87;;;75.87;;
21890;SDS011;11110;52.386;16.940;2023-02-20T04:23:14;128.90;;;70.40;;
21890;SDS011;11110;52.386;16.940;2023-02-20T04:25:48;143.37;;;72.33;;
21890;SDS011;11110;52.386;16.940;2023-02-20T04:28:20;134.73;;;69.03;;
21890;SDS011;11110;52.386;16.940;2023-02-20T04:30:55;136.07;;;70.10;;
21890;SDS011;11110;52.386;16.940;2023-02-20T04:33:24;137.97;;;72.23;;
21890;SDS011;11110;52.386;16.940;2023-02-20T04:36:01;132.87;;;70.23;;
21890;SDS011;11110;52.386;16.940;2023-02-20T04:38:30;146.27;;;74.97;;
21890;SDS011;11110;52.386;16.940;2023-02-20T04:41:03;128.33;;;70.73;;
21890;SDS011;11110;52.386;16.940;2023-02-20T04:43:31;131.60;;;72.87;;
21890;SDS011;11110;52.386;16.940;2023-02-20T04:46:00;142.93;;;75.80;;
21890;SDS011;11110;52.386;16.940;2023-02-20T04:48:29;138.63;;;73.33;;
21890;SDS011;11110;52.386;16.940;2023-02-20T04:50:59;142.70;;;72.40;;
21890;SDS011;11110;52.386;16.940;2023-02-20T04:53:31;135.07;;;71.03;;
21890;SDS011;11110;52.386;16.940;2023-02-20T04:55:59;133.83;;;72.70;;
21890;SDS011;11110;52.386;16.940;2023-02-20T04:58:31;140.30;;;73.20;;
21890;SDS011;11110;52.386;16.940;2023-02-20T05:01:12;129.13;;;69.83;;
21890;SDS011;11110;52.386;16.940;2023-02-20T05:03:40;137.13;;;70.37;;
21890;SDS011;11110;52.386;16.940;2023-02-20T05:06:09;141.80;;;72.70;;
21890;SDS011;11110;52.386;16.940;2023-02-20T05:08:38;139.37;;;73.70;;
21890;SDS011;11110;52.386;16.940;2023-02-20T05:11:07;142.13;;;74.17;;
21890;SDS011;11110;52.386;16.940;2023-02-20T05:13:37;137.63;;;78.23;;
21890;SDS011;11110;52.386;16.940;2023-02-20T05:16:06;139.67;;;77.33;;
21890;SDS011;11110;52.386;16.940;2023-02-20T05:18:35;143.07;;;77.13;;
21890;SDS011;11110;52.386;16.940;2023-02-20T05:21:03;141.33;;;75.57;;
21890;SDS011;11110;52.386;16.940;2023-02-20T05:24:04;143.70;;;76.40;;
21890;SDS011;11110;52.386;16.940;2023-02-20T05:26:35;140.93;;;74.03;;
21890;SDS011;11110;52.386;16.940;2023-02-20T05:29:05;140.70;;;75.50;;
21890;SDS011;11110;52.386;16.940;2023-02-20T05:31:38;134.53;;;71.73;;
21890;SDS011;11110;52.386;16.940;2023-02-20T05:34:06;132.47;;;74.73;;
21890;SDS011;11110;52.386;16.940;2023-02-20T05:36:35;134.00;;;71.53;;
21890;SDS011;11110;52.386;16.940;2023-02-20T05:39:04;144.07;;;75.80;;
21890;SDS011;11110;52.386;16.940;2023-02-20T05:41:33;140.63;;;78.50;;
21890;SDS011;11110;52.386;16.940;2023-02-20T05:44:02;139.40;;;76.87;;
21890;SDS011;11110;52.386;16.940;2023-02-20T05:46:37;151.07;;;77.97;;
21890;SDS011;11110;52.386;16.940;2023-02-20T05:49:07;144.90;;;78.10;;
21890;SDS011;11110;52.386;16.940;2023-02-20T05:51:36;142.40;;;73.07;;
21890;SDS011;11110;52.386;16.940;2023-02-20T05:54:05;143.83;;;73.93;;
21890;SDS011;11110;52.386;16.940;2023-02-20T05:56:33;143.23;;;75.17;;
21890;SDS011;11110;52.386;16.940;2023-02-20T05:59:02;139.77;;;74.57;;
21890;SDS011;11110;52.386;16.940;2023-02-20T06:01:32;142.63;;;73.40;;
21890;SDS011;11110;52.386;16.940;2023-02-20T06:04:01;145.50;;;74.87;;
21890;SDS011;11110;52.386;16.940;2023-02-20T06:06:30;138.27;;;73.67;;
21890;SDS011;11110;52.386;16.940;2023-02-20T06:09:00;138.67;;;72.67;;
21890;SDS011;11110;52.386;16.940;2023-02-20T06:11:29;139.63;;;74.03;;
21890;SDS011;11110;52.386;16.940;2023-02-20T06:13:57;160.77;;;77.40;;
21890;SDS011;11110;52.386;16.940;2023-02-20T06:16:27;145.70;;;76.47;;
21890;SDS011;11110;52.386;16.940;2023-02-20T06:18:58;141.60;;;74.57;;
21890;SDS011;11110;52.386;16.940;2023-02-20T06:21:27;143.57;;;73.50;;
21890;SDS011;11110;52.386;16.940;2023-02-20T06:23:56;141.67;;;73.70;;
21890;SDS011;11110;52.386;16.940;2023-02-20T06:26:25;140.97;;;74.27;;
21890;SDS011;11110;52.386;16.940;2023-02-20T06:28:53;137.40;;;71.03;;
21890;SDS011;11110;52.386;16.940;2023-02-20T06:31:24;137.63;;;68.97;;
21890;SDS011;11110;52.386;16.940;2023-02-20T06:33:55;155.27;;;72.00;;
21890;SDS011;11110;52.386;16.940;2023-02-20T06:36:25;133.67;;;68.73;;
21890;SDS011;11110;52.386;16.940;2023-02-20T06:38:55;139.43;;;68.53;;
21890;SDS011;11110;52.386;16.940;2023-02-20T06:41:25;151.07;;;71.03;;
21890;SDS011;11110;52.386;16.940;2023-02-20T06:43:54;142.33;;;69.27;;
21890;SDS011;11110;52.386;16.940;2023-02-20T06:46:23;142.63;;;71.37;;
21890;SDS011;11110;52.386;16.940;2023-02-20T06:48:53;144.53;;;71.60;;
21890;SDS011;11110;52.386;16.940;2023-02-20T06:51:26;140.90;;;70.10;;
21890;SDS011;11110;52.386;16.940;2023-02-20T06:53:55;151.23;;;71.03;;
21890;SDS011;11110;52.386;16.940;2023-02-20T06:56:25;149.70;;;70.17;;
21890;SDS011;11110;52.386;16.940;2023-02-20T06:58:56;133.63;;;67.67;;
21890;SDS011;11110;52.386;16.940;2023-02-20T07:01:26;135.47;;;68.63;;
21890;SDS011;11110;52.386;16.940;2023-02-20T07:03:57;139.53;;;70.83;;
21890;SDS011;11110;52.386;16.940;2023-02-20T07:06:30;135.53;;;71.77;;
21890;SDS011;11110;52.386;16.940;2023-02-20T07:08:58;135.03;;;70.87;;
21890;SDS011;11110;52.386;16.940;2023-02-20T07:11:27;142.27;;;75.27;;
21890;SDS011;11110;52.386;16.940;2023-02-20T07:13:55;149.10;;;72.47;;
21890;SDS011;11110;52.386;16.940;2023-02-20T07:16:24;140.27;;;70.30;;
21890;SDS011;11110;52.386;16.940;2023-02-20T07:18:53;147.53;;;71.80;;
21890;SDS011;11110;52.386;16.940;2023-02-20T07:21:22;152.33;;;74.20;;
21890;SDS011;11110;52.386;16.940;2023-02-20T07:23:52;147.97;;;69.33;;
21890;SDS011;11110;52.386;16.940;2023-02-20T07:26:21;151.27;;;72.03;;
21890;SDS011;11110;52.386;16.940;2023-02-20T07:28:52;147.50;;;71.97;;
21890;SDS011;11110;52.386;16.940;2023-02-20T07:31:21;157.20;;;69.90;;
21890;SDS011;11110;52.386;16.940;2023-02-20T07:33:50;157.60;;;71.93;;
21890;SDS011;11110;52.386;16.940;2023-02-20T07:36:18;150.33;;;71.93;;
21890;SDS011;11110;52.386;16.940;2023-02-20T07:38:55;146.27;;;70.73;;
21890;SDS011;11110;52.386;16.940;2023-02-20T07:41:26;145.03;;;70.27;;
21890;SDS011;11110;52.386;16.940;2023-02-20T07:43:57;149.57;;;71.87;;
21890;SDS011;11110;52.386;16.940;2023-02-20T07:46:26;147.07;;;70.73;;
21890;SDS011;11110;52.386;16.940;2023-02-20T07:48:59;150.43;;;71.80;;
21890;SDS011;11110;52.386;16.940;2023-02-20T07:51:28;151.93;;;72.80;;
21890;SDS011;11110;52.386;16.940;2023-02-20T07:53:58;156.70;;;73.47;;
21890;SDS011;11110;52.386;16.940;2023-02-20T07:56:27;141.17;;;72.20;;
21890;SDS011;11110;52.386;16.940;2023-02-20T07:58:56;160.13;;;75.20;;
21890;SDS011;11110;52.386;16.940;2023-02-20T08:01:26;169.73;;;75.40;;
21890;SDS011;11110;52.386;16.940;2023-02-20T08:03:56;150.40;;;70.87;;
21890;SDS011;11110;52.386;16.940;2023-02-20T08:06:24;157.53;;;74.23;;
21890;SDS011;11110;52.386;16.940;2023-02-20T08:08:54;144.30;;;69.87;;
21890;SDS011;11110;52.386;16.940;2023-02-20T08:11:24;142.17;;;68.07;;
21890;SDS011;11110;52.386;16.940;2023-02-20T08:13:53;144.17;;;69.47;;
21890;SDS011;11110;52.386;16.940;2023-02-20T08:16:22;148.70;;;69.73;;
21890;SDS011;11110;52.386;16.940;2023-02-20T08:18:52;144.80;;;68.47;;
21890;SDS011;11110;52.386;16.940;2023-02-20T08:21:21;150.13;;;68.70;;
21890;SDS011;11110;52.386;16.940;2023-02-20T08:23:50;152.73;;;68.53;;
21890;SDS011;11110;52.386;16.940;2023-02-20T08:26:20;140.93;;;66.30;;
21890;SDS011;11110;52.386;16.940;2023-02-20T08:28:51;138.13;;;70.73;;
21890;SDS011;11110;52.386;16.940;2023-02-20T08:31:20;153.17;;;74.57;;
21890;SDS011;11110;52.386;16.940;2023-02-20T08:33:58;133.27;;;68.53;;
21890;SDS011;11110;52.386;16.940;2023-02-20T08:36:27;151.73;;;75.77;;
21890;SDS011;11110;52.386;16.940;2023-02-20T08:38:57;156.10;;;74.60;;
21890;SDS011;11110;52.386;16.940;2023-02-20T08:41:27;150.73;;;70.30;;
21890;SDS011;11110;52.386;16.940;2023-02-20T08:43:57;160.93;;;77.30;;
21890;SDS011;11110;52.386;16.940;2023-02-20T08:46:26;147.77;;;70.77;;
21890;SDS011;11110;52.386;16.940;2023-02-20T08:48:54;146.00;;;71.73;;
21890;SDS011;11110;52.386;16.940;2023-02-20T08:51:23;148.47;;;73.37;;
21890;SDS011;11110;52.386;16.940;2023-02-20T08:53:52;145.47;;;72.57;;
21890;SDS011;11110;52.386;16.940;2023-02-20T08:56:20;149.87;;;73.70;;
21890;SDS011;11110;52.386;16.940;2023-02-20T08:58:49;148.03;;;77.40;;
21890;SDS011;11110;52.386;16.940;2023-02-20T09:01:19;164.48;;;81.07;;
21890;SDS011;11110;52.386;16.940;2023-02-20T09:03:48;148.53;;;76.77;;
21890;SDS011;11110;52.386;16.940;2023-02-20T09:06:17;139.47;;;75.53;;
21890;SDS011;11110;52.386;16.940;2023-02-20T09:08:45;160.47;;;77.80;;
21890;SDS011;11110;52.386;16.940;2023-02-20T09:11:15;147.27;;;75.73;;
21890;SDS011;11110;52.386;16.940;2023-02-20T09:13:44;150.57;;;73.47;;
21890;SDS011;11110;52.386;16.940;2023-02-20T09:16:14;154.23;;;74.20;;
21890;SDS011;11110;52.386;16.940;2023-02-20T09:18:47;149.90;;;73.23;;
21890;SDS011;11110;52.386;16.940;2023-02-20T09:21:16;156.87;;;72.83;;
21890;SDS011;11110;52.386;16.940;2023-02-20T09:23:46;143.37;;;70.43;;
21890;SDS011;11110;52.386;16.940;2023-02-20T09:26:14;166.30;;;74.57;;
21890;SDS011;11110;52.386;16.940;2023-02-20T09:28:43;153.90;;;69.70;;
21890;SDS011;11110;52.386;16.940;2023-02-20T09:31:12;163.93;;;75.37;;
21890;SDS011;11110;52.386;16.940;2023-02-20T09:33:43;148.43;;;70.00;;
21890;SDS011;11110;52.386;16.940;2023-02-20T09:36:18;147.37;;;70.60;;
21890;SDS011;11110;52.386;16.940;2023-02-20T09:38:47;161.60;;;74.53;;
21890;SDS011;11110;52.386;16.940;2023-02-20T09:41:21;155.90;;;72.63;;
21890;SDS011;11110;52.386;16.940;2023-02-20T09:43:58;154.20;;;74.73;;
21890;SDS011;11110;52.386;16.940;2023-02-20T09:46:34;154.47;;;71.40;;
21890;SDS011;11110;52.386;16.940;2023-02-20T09:49:05;158.10;;;74.77;;
21890;SDS011;11110;52.386;16.940;2023-02-20T09:51:40;163.37;;;73.77;;
21890;SDS011;11110;52.386;16.940;2023-02-20T09:54:13;171.40;;;76.07;;
21890;SDS011;11110;52.386;16.940;2023-02-20T09:56:48;161.87;;;77.43;;
21890;SDS011;11110;52.386;16.940;2023-02-20T09:59:19;165.67;;;77.43;;
21890;SDS011;11110;52.386;16.940;2023-02-20T10:01:52;161.57;;;73.07;;
21890;SDS011;11110;52.386;16.940;2023-02-20T10:04:24;166.90;;;77.63;;
21890;SDS011;11110;52.386;16.940;2023-02-20T10:07:01;167.03;;;83.47;;
21890;SDS011;11110;52.386;16.940;2023-02-20T10:09:39;165.33;;;73.23;;
21890;SDS011;11110;52.386;16.940;2023-02-20T10:12:11;158.73;;;73.87;;
21890;SDS011;11110;52.386;16.940;2023-02-20T10:14:57;161.03;;;81.13;;
21890;SDS011;11110;52.386;16.940;2023-02-20T10:17:42;144.63;;;77.33;;
21890;SDS011;11110;52.386;16.940;2023-02-20T10:20:19;146.47;;;78.43;;
21890;SDS011;11110;52.386;16.940;2023-02-20T10:22:57;153.57;;;80.67;;
21890;SDS011;11110;52.386;16.940;2023-02-20T10:25:34;151.80;;;78.03;;
21890;SDS011;11110;52.386;16.940;2023-02-20T10:28:08;157.10;;;79.53;;
21890;SDS011;11110;52.386;16.940;2023-02-20T10:30:41;168.20;;;82.93;;
21890;SDS011;11110;52.386;16.940;2023-02-20T10:33:16;170.43;;;85.27;;
21890;SDS011;11110;52.386;16.940;2023-02-20T10:35:52;185.23;;;86.50;;
21890;SDS011;11110;52.386;16.940;2023-02-20T10:38:29;160.77;;;81.80;;
21890;SDS011;11110;52.386;16.940;2023-02-20T10:41:04;163.03;;;81.37;;
21890;SDS011;11110;52.386;16.940;2023-02-20T10:43:38;167.70;;;82.67;;
21890;SDS011;11110;52.386;16.940;2023-02-20T10:46:11;154.67;;;80.43;;
21890;SDS011;11110;52.386;16.940;2023-02-20T10:48:47;156.33;;;80.63;;
21890;SDS011;11110;52.386;16.940;2023-02-20T10:51:19;150.40;;;77.93;;
21890;SDS011;11110;52.386;16.940;2023-02-20T10:53:56;143.37;;;77.00;;
21890;SDS011;11110;52.386;16.940;2023-02-20T10:56:31;149.47;;;80.27;;
21890;SDS011;11110;52.386;16.940;2023-02-20T10:59:06;159.10;;;80.40;;
21890;SDS011;11110;52.386;16.940;2023-02-20T11:01:39;162.60;;;79.80;;
21890;SDS011;11110;52.386;16.940;2023-02-20T11:04:09;165.10;;;82.80;;
21890;SDS011;11110;52.386;16.940;2023-02-20T11:06:42;165.30;;;81.80;;
21890;SDS011;11110;52.386;16.940;2023-02-20T11:09:14;153.23;;;80.00;;
21890;SDS011;11110;52.386;16.940;2023-02-20T11:11:43;153.37;;;79.57;;
21890;SDS011;11110;52.386;16.940;2023-02-20T11:14:14;146.90;;;78.03;;
21890;SDS011;11110;52.386;16.940;2023-02-20T11:17:00;155.63;;;78.57;;
21890;SDS011;11110;52.386;16.940;2023-02-20T11:19:37;169.10;;;82.10;;
21890;SDS011;11110;52.386;16.940;2023-02-20T11:22:09;151.30;;;79.03;;
21890;SDS011;11110;52.386;16.940;2023-02-20T11:24:40;156.10;;;79.87;;
21890;SDS011;11110;52.386;16.940;2023-02-20T11:27:09;145.07;;;76.60;;
21890;SDS011;11110;52.386;16.940;2023-02-20T11:29:42;155.67;;;79.70;;
21890;SDS011;11110;52.386;16.940;2023-02-20T11:32:23;159.27;;;79.93;;
21890;SDS011;11110;52.386;16.940;2023-02-20T11:35:11;158.60;;;80.63;;
21890;SDS011;11110;52.386;16.940;2023-02-20T11:41:06;155.83;;;80.13;;
21890;SDS011;11110;52.386;16.940;2023-02-20T11:43:40;156.73;;;76.53;;
21890;SDS011;11110;52.386;16.940;2023-02-20T11:46:26;156.37;;;76.73;;
21890;SDS011;11110;52.386;16.940;2023-02-20T11:48:59;150.13;;;75.83;;
21890;SDS011;11110;52.386;16.940;2023-02-20T11:51:32;162.00;;;78.03;;
21890;SDS011;11110;52.386;16.940;2023-02-20T11:54:07;155.33;;;76.57;;
21890;SDS011;11110;52.386;16.940;2023-02-20T11:57:00;140.77;;;74.00;;
21890;SDS011;11110;52.386;16.940;2023-02-20T11:59:33;146.60;;;72.57;;
21890;SDS011;11110;52.386;16.940;2023-02-20T12:02:11;162.93;;;75.13;;
21890;SDS011;11110;52.386;16.940;2023-02-20T12:07:55;156.87;;;71.73;;
21890;SDS011;11110;52.386;16.940;2023-02-20T12:10:35;152.77;;;70.67;;
21890;SDS011;11110;52.386;16.940;2023-02-20T12:13:11;152.83;;;74.73;;
21890;SDS011;11110;52.386;16.940;2023-02-20T12:15:43;151.07;;;72.53;;
21890;SDS011;11110;52.386;16.940;2023-02-20T12:18:30;150.80;;;72.53;;
21890;SDS011;11110;52.386;16.940;2023-02-20T12:21:21;157.13;;;71.80;;
21890;SDS011;11110;52.386;16.940;2023-02-20T12:23:58;157.00;;;75.77;;
21890;SDS011;11110;52.386;16.940;2023-02-20T12:26:39;152.83;;;73.67;;
21890;SDS011;11110;52.386;16.940;2023-02-20T12:29:23;147.67;;;72.03;;
21890;SDS011;11110;52.386;16.940;2023-02-20T12:32:07;152.80;;;74.90;;
21890;SDS011;11110;52.386;16.940;2023-02-20T12:34:57;154.37;;;72.10;;
21890;SDS011;11110;52.386;16.940;2023-02-20T12:37:36;151.03;;;74.87;;
21890;SDS011;11110;52.386;16.940;2023-02-20T12:40:20;143.90;;;71.37;;
21890;SDS011;11110;52.386;16.940;2023-02-20T12:43:05;149.73;;;72.83;;
21890;SDS011;11110;52.386;16.940;2023-02-20T12:45:48;152.50;;;74.70;;
21890;SDS011;11110;52.386;16.940;2023-02-20T12:48:30;140.77;;;70.80;;
21890;SDS011;11110;52.386;16.940;2023-02-20T12:51:09;150.70;;;71.73;;
21890;SDS011;11110;52.386;16.940;2023-02-20T12:54:01;160.90;;;77.07;;
21890;SDS011;11110;52.386;16.940;2023-02-20T12:56:57;160.90;;;75.87;;
21890;SDS011;11110;52.386;16.940;2023-02-20T12:59:34;157.77;;;76.10;;
21890;SDS011;11110;52.386;16.940;2023-02-20T13:02:19;161.90;;;77.37;;
21890;SDS011;11110;52.386;16.940;2023-02-20T13:05:08;144.60;;;71.70;;
21890;SDS011;11110;52.386;16.940;2023-02-20T13:07:41;155.60;;;74.70;;
21890;SDS011;11110;52.386;16.940;2023-02-20T13:10:15;148.43;;;70.97;;
21890;SDS011;11110;52.386;16.940;2023-02-20T13:12:47;156.90;;;71.70;;
21890;SDS011;11110;52.386;16.940;2023-02-20T13:15:26;152.27;;;72.60;;
21890;SDS011;11110;52.386;16.940;2023-02-20T13:18:05;154.53;;;73.97;;
21890;SDS011;11110;52.386;16.940;2023-02-20T13:20:43;135.40;;;70.57;;
21890;SDS011;11110;52.386;16.940;2023-02-20T13:23:26;149.10;;;74.67;;
21890;SDS011;11110;52.386;16.940;2023-02-20T13:26:00;147.97;;;75.03;;
21890;SDS011;11110;52.386;16.940;2023-02-20T13:28:37;152.93;;;74.77;;
21890;SDS011;11110;52.386;16.940;2023-02-20T13:31:12;160.20;;;74.30;;
21890;SDS011;11110;52.386;16.940;2023-02-20T13:33:46;142.53;;;73.83;;
21890;SDS011;11110;52.386;16.940;2023-02-20T13:36:17;151.03;;;73.50;;
21890;SDS011;11110;52.386;16.940;2023-02-20T13:42:25;153.93;;;75.33;;
21890;SDS011;11110;52.386;16.940;2023-02-20T13:45:01;161.43;;;76.23;;
21890;SDS011;11110;52.386;16.940;2023-02-20T13:47:45;160.50;;;78.60;;
21890;SDS011;11110;52.386;16.940;2023-02-20T13:50:29;154.67;;;77.03;;
21890;SDS011;11110;52.386;16.940;2023-02-20T13:53:02;147.03;;;73.37;;
21890;SDS011;11110;52.386;16.940;2023-02-20T13:55:32;153.47;;;73.97;;
21890;SDS011;11110;52.386;16.940;2023-02-20T13:58:04;155.53;;;74.97;;
21890;SDS011;11110;52.386;16.940;2023-02-20T14:00:48;152.53;;;75.33;;
21890;SDS011;11110;52.386;16.940;2023-02-20T14:03:21;155.23;;;72.43;;
21890;SDS011;11110;52.386;16.940;2023-02-20T14:06:02;156.53;;;74.03;;
21890;SDS011;11110;52.386;16.940;2023-02-20T14:08:32;157.90;;;71.43;;
21890;SDS011;11110;52.386;16.940;2023-02-20T14:11:02;156.33;;;72.23;;
21890;SDS011;11110;52.386;16.940;2023-02-20T14:13:32;158.77;;;74.13;;
21890;SDS011;11110;52.386;16.940;2023-02-20T14:16:23;152.93;;;75.87;;
21890;SDS011;11110;52.386;16.940;2023-02-20T14:18:56;156.30;;;76.13;;
21890;SDS011;11110;52.386;16.940;2023-02-20T14:21:27;151.83;;;77.10;;
21890;SDS011;11110;52.386;16.940;2023-02-20T14:23:56;163.60;;;79.17;;
21890;SDS011;11110;52.386;16.940;2023-02-20T14:26:43;149.50;;;72.53;;
21890;SDS011;11110;52.386;16.940;2023-02-20T14:29:18;171.83;;;77.63;;
21890;SDS011;11110;52.386;16.940;2023-02-20T14:31:49;146.10;;;70.50;;
21890;SDS011;11110;52.386;16.940;2023-02-20T14:34:20;155.60;;;75.00;;
21890;SDS011;11110;52.386;16.940;2023-02-20T14:36:59;155.93;;;74.97;;
21890;SDS011;11110;52.386;16.940;2023-02-20T14:39:37;158.60;;;74.50;;
21890;SDS011;11110;52.386;16.940;2023-02-20T14:42:15;152.33;;;71.83;;
21890;SDS011;11110;52.386;16.940;2023-02-20T14:44:50;158.10;;;74.80;;
21890;SDS011;11110;52.386;16.940;2023-02-20T14:47:21;153.20;;;77.40;;
21890;SDS011;11110;52.386;16.940;2023-02-20T14:49:50;150.20;;;70.23;;
21890;SDS011;11110;52.386;16.940;2023-02-20T14:52:21;150.07;;;72.20;;
21890;SDS011;11110;52.386;16.940;2023-02-20T14:54:56;148.13;;;73.00;;